Time;durP1;ratioP1;P1;durP2;ratioP2;P2;SDS_P1;SDS_P2;PMS_P1;PMS_P2;Temp;Humidity;BMP_temperature;BMP_pressure;BME280_temperature;BME280_humidity;BME280_pressure;Samples;Min_cycle;Max_cycle;Signal;HPM_P1;HPM_P2
2021/12/29 00:01:29;;;;;;;3.53;2.47;;;;;;;9.69;75.38;99296.41;6245686;22;19999;-75
2021/12/29 00:03:54;;;;;;;2.63;2.33;;;;;;;9.78;75.20;99303.69;6270825;22;20011;-74
2021/12/29 00:06:20;;;;;;;1.98;0.60;;;;;;;9.70;75.80;99293.38;6244192;22;20008;-75
2021/12/29 00:08:46;;;;;;;0.52;0.52;;;;;;;9.74;75.96;99296.38;6271812;22;20007;-75
2021/12/29 00:11:26;;;;;;;4.60;0.70;;;;;;;9.76;75.44;99297.69;6220417;22;20003;-76
2021/12/29 00:13:51;;;;;;;0.80;0.80;;;;;;;9.87;75.54;99303.88;6244271;22;20012;-74
2021/12/29 00:16:16;;;;;;;0.73;0.40;;;;;;;9.83;75.08;99297.34;6268052;22;20064;-74
2021/12/29 00:18:44;;;;;;;0.88;0.52;;;;;;;9.89;75.07;99304.38;6271607;22;20003;-74
2021/12/29 00:21:10;;;;;;;0.75;0.50;;;;;;;9.85;75.31;99295.13;6243624;22;20452;-74
2021/12/29 00:23:38;;;;;;;0.50;0.47;;;;;;;9.89;75.30;99303.59;6270877;22;20000;-74
2021/12/29 00:26:04;;;;;;;1.73;0.28;;;;;;;9.83;75.32;99291.91;6271478;22;20007;-74
2021/12/29 00:28:32;;;;;;;0.20;0.20;;;;;;;9.94;75.17;99301.63;6243510;22;20014;-74
2021/12/29 00:30:57;;;;;;;0.10;0.10;;;;;;;9.87;75.82;99281.19;6242632;22;20410;-74
2021/12/29 00:33:33;;;;;;;;;;;;;;;;;;;;;
2021/12/29 00:35:59;;;;;;;0.63;0.32;;;;;;;9.85;75.43;99284.22;6248189;22;20083;-75
2021/12/29 00:38:24;;;;;;;0.20;0.10;;;;;;;9.86;75.33;99274.94;6245572;22;20454;-75
2021/12/29 00:40:50;;;;;;;0.20;0.20;;;;;;;9.85;75.42;99278.75;6243935;22;20078;-76
2021/12/29 00:43:15;;;;;;;0.63;0.20;;;;;;;9.82;75.31;99268.41;6220220;22;20008;-76
2021/12/29 00:45:41;;;;;;;1.05;0.20;;;;;;;9.88;75.60;99278.16;6218430;22;20034;-76
2021/12/29 00:48:14;;;;;;;1.52;0.60;;;;;;;9.86;75.29;99277.66;6244469;22;20529;-75
2021/12/29 00:50:48;;;;;;;1.00;0.90;;;;;;;9.89;75.90;99290.72;6272551;22;20428;-75
2021/12/29 00:53:16;;;;;;;1.83;0.63;;;;;;;9.82;76.12;99284.78;6244768;22;20062;-75
2021/12/29 00:55:46;;;;;;;0.63;0.40;;;;;;;9.86;75.73;99283.13;6244367;22;20007;-75
2021/12/29 00:58:19;;;;;;;1.75;0.80;;;;;;;9.73;76.25;99264.69;6245265;22;20010;-78
2021/12/29 01:00:44;;;;;;;0.73;0.55;;;;;;;9.84;75.96;99277.16;6245759;22;20368;-79
2021/12/29 01:03:11;;;;;;;2.10;0.95;;;;;;;9.78;75.72;99270.09;6270858;22;19992;-77
2021/12/29 01:05:38;;;;;;;0.98;0.60;;;;;;;9.84;76.41;99279.88;6273784;22;20054;-78
2021/12/29 01:08:07;;;;;;;0.70;0.70;;;;;;;9.79;75.99;99269.00;6246510;22;19999;-79
2021/12/29 01:10:41;;;;;;;1.45;0.77;;;;;;;9.83;75.96;99285.59;6245373;22;20000;-78
2021/12/29 01:13:09;;;;;;;4.18;0.90;;;;;;;9.81;76.22;99288.63;6273662;22;20003;-78
2021/12/29 01:15:55;;;;;;;2.28;1.00;;;;;;;9.78;75.81;99291.94;6245561;22;20073;-77
2021/12/29 01:18:30;;;;;;;2.22;1.25;;;;;;;9.72;76.66;99276.72;6273377;22;19995;-78
2021/12/29 01:20:56;;;;;;;5.07;0.85;;;;;;;9.70;76.38;99274.28;6246678;22;20418;-77
2021/12/29 01:23:29;;;;;;;1.33;0.73;;;;;;;9.65;76.59;99276.22;6220251;22;20004;-78
2021/12/29 01:26:03;;;;;;;3.05;0.68;;;;;;;9.70;76.79;99276.19;6245424;22;20007;-78
2021/12/29 01:28:38;;;;;;;;;;;;;;;;;;;;;
2021/12/29 01:31:04;;;;;;;0.40;0.38;;;;;;;9.65;77.09;99246.22;6272504;22;20096;-78
2021/12/29 01:33:30;;;;;;;0.95;0.50;;;;;;;9.80;77.31;99259.72;6243986;22;20031;-77
2021/12/29 01:35:55;;;;;;;0.32;0.20;;;;;;;9.76;77.07;99242.28;6244536;22;20102;-77
2021/12/29 01:38:21;;;;;;;0.38;0.30;;;;;;;9.84;77.18;99252.56;6245659;22;20026;-77
2021/12/29 01:40:52;;;;;;;2.70;0.60;;;;;;;9.80;76.92;99237.88;6275851;22;20004;-74
2021/12/29 01:43:18;;;;;;;1.88;0.93;;;;;;;9.83;76.94;99242.75;6274968;22;20020;-75
2021/12/29 01:45:44;;;;;;;7.50;0.85;;;;;;;9.94;77.16;99247.00;6272933;22;20034;-76
2021/12/29 01:48:16;;;;;;;0.80;0.60;;;;;;;9.92;76.91;99238.25;6247605;22;20003;-78
2021/12/29 01:50:45;;;;;;;4.90;1.27;;;;;;;9.98;77.19;99244.47;6244515;22;20333;-79
2021/12/29 01:53:32;;;;;;;5.53;1.10;;;;;;;9.94;77.26;99241.53;6246666;22;20007;-77
2021/12/29 01:56:03;;;;;;;1.25;0.90;;;;;;;9.92;77.53;99230.06;6244226;22;20034;-80
2021/12/29 02:01:44;;;;;;;2.45;1.27;;;;;;;9.93;77.37;99234.44;6265774;22;20008;-77
2021/12/29 02:04:10;;;;;;;9.02;1.50;;;;;;;9.97;77.40;99248.31;6275595;22;20502;-76
2021/12/29 02:06:36;;;;;;;12.68;1.85;;;;;;;9.92;77.72;99243.72;6271832;22;20011;-77
2021/12/29 02:09:13;;;;;;;8.75;2.00;;;;;;;9.86;78.09;99253.09;6247719;22;20007;-77
2021/12/29 02:11:42;;;;;;;8.68;2.42;;;;;;;9.87;78.76;99254.72;6245717;22;20014;-74
2021/12/29 02:14:07;;;;;;;9.05;2.00;;;;;;;9.76;78.99;99242.28;6268928;22;20015;-77
2021/12/29 02:16:38;;;;;;;9.77;2.05;;;;;;;9.75;78.87;99243.38;6197447;22;20007;-77
2021/12/29 02:19:13;;;;;;;11.77;3.03;;;;;;;9.81;79.32;99250.41;6248251;22;20008;-76
2021/12/29 02:22:11;;;;;;;9.00;2.00;;;;;;;9.83;79.74;99253.66;6274226;22;20532;-77
2021/12/29 02:25:18;;;;;;;6.28;1.73;;;;;;;9.84;79.63;99244.38;6270384;22;20004;-76
2021/12/29 02:27:56;;;;;;;5.93;1.88;;;;;;;9.91;79.83;99244.00;6275160;22;20069;-78
2021/12/29 02:30:26;;;;;;;11.25;2.25;;;;;;;9.91;79.76;99246.75;6247275;22;20003;-77
2021/12/29 02:32:55;;;;;;;12.20;2.55;;;;;;;9.93;79.60;99247.28;6248289;22;20738;-78
2021/12/29 02:35:22;;;;;;;8.35;1.92;;;;;;;9.91;80.26;99236.63;6256325;22;20007;-77
2021/12/29 02:37:48;;;;;;;15.45;2.55;;;;;;;9.91;80.24;99236.63;6261381;22;20078;-77
2021/12/29 02:40:14;;;;;;;11.82;2.50;;;;;;;9.94;80.35;99238.81;6255134;22;20004;-78
2021/12/29 02:42:42;;;;;;;7.38;2.83;;;;;;;9.94;80.36;99233.34;6273080;22;20007;-78
2021/12/29 02:45:15;;;;;;;12.77;3.38;;;;;;;9.89;80.28;99225.19;6273274;22;20007;-76
2021/12/29 02:47:41;;;;;;;11.00;2.65;;;;;;;9.91;80.34;99233.91;6273152;22;20065;-79
2021/12/29 02:50:08;;;;;;;9.40;2.95;;;;;;;9.92;80.22;99232.81;6246468;22;20003;-78
2021/12/29 02:52:34;;;;;;;25.95;3.58;;;;;;;9.92;80.71;99224.59;6272803;22;20617;-77
2021/12/29 02:54:59;;;;;;;7.47;1.80;;;;;;;9.98;80.47;99216.38;6247924;22;20064;-77
2021/12/29 02:57:32;;;;;;;4.60;2.10;;;;;;;9.94;80.20;99202.47;6246946;22;20103;-77
2021/12/29 02:59:57;;;;;;;15.88;2.90;;;;;;;10.01;80.41;99213.06;6222127;22;20330;-77
2021/12/29 03:02:26;;;;;;;14.30;2.08;;;;;;;9.98;80.52;99210.91;6245915;22;20014;-78
2021/12/29 03:04:53;;;;;;;9.63;2.35;;;;;;;9.98;80.71;99205.44;6222767;22;20065;-76
2021/12/29 03:07:18;;;;;;;7.60;1.38;;;;;;;9.98;80.48;99205.44;6246291;22;20414;-76
2021/12/29 03:09:44;;;;;;;13.32;2.58;;;;;;;10.01;80.44;99188.47;6246342;22;20011;-77
2021/12/29 03:12:09;;;;;;;8.00;1.95;;;;;;;9.99;80.77;99190.66;6274335;22;20012;-77
2021/12/29 03:14:35;;;;;;;5.85;1.63;;;;;;;10.01;80.25;99183.00;6244871;22;20417;-77
2021/12/29 03:17:01;;;;;;;2.47;0.85;;;;;;;10.02;80.47;99176.44;6273884;22;20003;-77
2021/12/29 03:19:26;;;;;;;2.67;0.95;;;;;;;10.03;80.50;99172.59;6247555;22;20053;-78
2021/12/29 03:21:52;;;;;;;6.13;1.10;;;;;;;10.02;80.55;99174.53;6272265;22;20011;-77
2021/12/29 03:24:20;;;;;;;3.10;1.17;;;;;;;10.01;80.41;99161.97;6272842;22;20000;-76
2021/12/29 03:26:46;;;;;;;4.55;1.45;;;;;;;10.03;80.11;99167.13;6222827;22;20077;-77
2021/12/29 03:29:11;;;;;;;3.08;0.70;;;;;;;10.00;80.51;99157.59;6243806;22;20378;-77
2021/12/29 03:31:39;;;;;;;5.03;1.00;;;;;;;10.05;80.58;99148.56;6273008;22;20003;-77
2021/12/29 03:34:05;;;;;;;4.35;1.08;;;;;;;10.03;79.95;99137.09;6243927;22;20079;-77
2021/12/29 03:36:31;;;;;;;4.00;1.02;;;;;;;10.02;80.19;99135.50;6222245;22;20008;-77
2021/12/29 03:38:56;;;;;;;10.75;0.90;;;;;;;10.07;80.30;99138.13;6274281;22;20084;-76
2021/12/29 03:41:24;;;;;;;2.72;0.63;;;;;;;10.02;80.05;99132.75;6246544;22;20405;-78
2021/12/29 03:43:51;;;;;;;1.85;0.82;;;;;;;10.05;80.33;99134.91;6222565;22;20061;-77
2021/12/29 03:46:19;;;;;;;1.67;0.90;;;;;;;10.06;80.57;99136.50;6245056;22;20618;-77
2021/12/29 03:48:46;;;;;;;1.63;0.55;;;;;;;10.03;80.22;99131.63;6247599;22;20483;-77
2021/12/29 03:51:12;;;;;;;8.05;1.15;;;;;;;10.02;80.55;99127.28;6274639;22;20008;-77
2021/12/29 03:53:38;;;;;;;2.17;0.82;;;;;;;10.03;80.41;99135.19;6220112;22;20065;-77
2021/12/29 03:56:05;;;;;;;1.48;0.70;;;;;;;10.00;80.23;99126.75;6247699;22;20008;-77
2021/12/29 03:58:30;;;;;;;3.67;1.05;;;;;;;10.00;80.44;99121.28;6244628;22;20003;-77
2021/12/29 04:01:01;;;;;;;2.28;0.95;;;;;;;9.96;80.21;99121.09;6243558;22;20888;-77
2021/12/29 04:03:26;;;;;;;7.53;1.08;;;;;;;9.98;80.23;99123.53;6270342;22;20002;-77
2021/12/29 04:05:52;;;;;;;3.30;0.52;;;;;;;9.90;79.98;99109.41;6244213;22;20003;-77
2021/12/29 04:08:19;;;;;;;3.17;0.98;;;;;;;9.93;80.06;99119.75;6247842;22;20429;-78
2021/12/29 04:10:44;;;;;;;3.92;0.85;;;;;;;9.91;80.04;99107.47;6273836;22;20371;-78
2021/12/29 04:13:10;;;;;;;6.07;1.17;;;;;;;9.92;80.31;99098.19;6244470;22;20014;-78
2021/12/29 04:15:37;;;;;;;6.22;0.82;;;;;;;9.88;80.10;99097.94;6248911;22;20003;-78
2021/12/29 04:18:15;;;;;;;4.38;0.90;;;;;;;9.88;80.01;99095.22;6251557;22;20735;-78
2021/12/29 04:20:54;;;;;;;2.22;0.85;;;;;;;9.94;80.68;99091.34;6250280;22;20007;-78
2021/12/29 04:23:21;;;;;;;1.90;0.73;;;;;;;9.94;80.02;99085.03;6275647;22;20057;-77
2021/12/29 04:25:50;;;;;;;3.47;1.02;;;;;;;9.91;80.10;99091.91;6223320;22;20011;-78
2021/12/29 04:28:20;;;;;;;2.13;0.63;;;;;;;9.96;80.02;99105.50;6247280;22;20004;-78
2021/12/29 04:30:51;;;;;;;11.30;1.00;;;;;;;9.94;80.30;99102.25;6247617;22;20111;-78
2021/12/29 04:33:18;;;;;;;3.70;1.25;;;;;;;9.92;79.93;99101.72;6246705;22;20015;-78
2021/12/29 04:35:49;;;;;;;2.85;0.95;;;;;;;9.81;80.22;99104.88;6245285;22;20443;-78
2021/12/29 04:38:23;;;;;;;4.70;1.48;;;;;;;9.85;80.21;99106.75;6290926;22;20035;-81
2021/12/29 04:40:50;;;;;;;1.75;0.57;;;;;;;9.79;80.88;99116.09;6261464;22;20073;-82
2021/12/29 04:43:34;;;;;;;1.67;0.90;;;;;;;9.74;80.55;99113.47;6261680;22;20003;-81
2021/12/29 04:46:14;;;;;;;2.92;0.88;;;;;;;9.61;80.69;99107.59;6245010;22;19995;-82
2021/12/29 04:49:00;;;;;;;4.80;0.55;;;;;;;9.72;80.82;99113.72;6273393;22;20006;-81
2021/12/29 04:51:34;;;;;;;1.40;0.50;;;;;;;9.54;80.99;99088.03;6273436;22;20004;-80
2021/12/29 04:54:11;;;;;;;;;;;;;;;;;;;;;
2021/12/29 04:56:52;;;;;;;1.13;0.45;;;;;;;9.54;81.13;99079.84;6299644;22;19995;-81
2021/12/29 04:59:21;;;;;;;0.30;0.30;;;;;;;9.65;81.31;99082.44;6267827;22;19999;-82
2021/12/29 05:02:10;;;;;;;;;;;;;;;;;;;;;
2021/12/29 05:05:51;;;;;;;;;;;;;;;;;;;;;
2021/12/29 05:08:49;;;;;;;1.30;0.40;;;;;;;9.58;80.75;99056.31;6276713;22;20012;-82
2021/12/29 05:12:05;;;;;;;;;;;;;;;;;;;;;
2021/12/29 05:15:34;;;;;;;1.05;0.57;;;;;;;9.62;80.65;99048.34;6286112;22;20020;-83
2021/12/29 05:18:22;;;;;;;0.60;0.43;;;;;;;9.81;80.52;99074.84;6272594;22;19998;-81
2021/12/29 05:21:00;;;;;;;0.55;0.30;;;;;;;9.61;80.85;99033.91;6267835;22;20007;-82
2021/12/29 05:23:37;;;;;;;;;;;;;;;;;;;;;
2021/12/29 05:26:13;;;;;;;2.83;0.68;;;;;;;9.74;81.01;99053.41;6286781;22;20330;-82
2021/12/29 05:28:47;;;;;;;0.45;0.45;;;;;;;9.84;80.95;99064.19;6256605;22;20008;-81
2021/12/29 05:31:13;;;;;;;0.47;0.20;;;;;;;9.74;81.63;99051.47;6253037;22;20011;-81
2021/12/29 05:33:39;;;;;;;0.30;0.30;;;;;;;9.72;81.06;99040.00;6232374;22;20530;-81
2021/12/29 05:36:07;;;;;;;0.60;0.20;;;;;;;9.71;81.27;99015.75;6253607;22;20078;-78
2021/12/29 05:38:35;;;;;;;0.30;0.30;;;;;;;9.84;80.98;99031.41;6254819;22;20019;-77
2021/12/29 05:41:01;;;;;;;0.88;0.40;;;;;;;9.84;81.02;99031.41;6254066;22;20067;-80
2021/12/29 05:43:36;;;;;;;0.28;0.22;;;;;;;9.83;80.83;99024.31;6253184;22;20593;-81
2021/12/29 05:46:21;;;;;;;0.40;0.30;;;;;;;10.06;81.33;99049.09;6279517;22;20027;-81
2021/12/29 05:48:56;;;;;;;;;;;;;;;;;;;;;
2021/12/29 05:51:22;;;;;;;1.05;0.50;;;;;;;10.01;81.56;99019.94;6249806;22;20091;-74
2021/12/29 05:53:48;;;;;;;0.20;0.20;;;;;;;10.12;80.97;99026.09;6219096;22;20039;-75
2021/12/29 05:56:13;;;;;;;0.30;0.20;;;;;;;10.09;81.12;99021.19;6220463;22;20097;-74
2021/12/29 05:58:58;;;;;;;;;;;;;;;;;;;;;
2021/12/29 06:01:31;;;;;;;0.20;0.20;;;;;;;10.07;81.18;98998.84;6274350;22;20382;-75
2021/12/29 06:03:57;;;;;;;0.20;0.20;;;;;;;10.25;81.12;99017.13;6247805;22;20008;-75
2021/12/29 06:06:30;;;;;;;0.20;0.20;;;;;;;10.30;81.04;99017.03;6243934;22;20045;-75
2021/12/29 06:08:58;;;;;;;0.20;0.20;;;;;;;10.22;81.43;99008.69;6244861;22;20083;-75
2021/12/29 06:11:31;;;;;;;0.40;0.40;;;;;;;10.24;81.39;99015.50;6221872;22;20011;-75
2021/12/29 06:13:58;;;;;;;0.30;0.25;;;;;;;10.31;81.37;99015.13;6272654;22;20007;-74
2021/12/29 06:16:24;;;;;;;0.10;0.10;;;;;;;10.26;81.21;99010.53;6244696;22;20004;-74
2021/12/29 06:18:55;;;;;;;0.20;0.20;;;;;;;10.31;80.96;99021.38;6273230;22;20311;-75
2021/12/29 06:21:33;;;;;;;0.30;0.30;;;;;;;10.34;81.19;99011.00;6247736;22;20014;-75
2021/12/29 06:24:09;;;;;;;0.35;0.35;;;;;;;10.25;80.94;98984.34;6248580;22;20344;-75
2021/12/29 06:26:34;;;;;;;;;;;;;;;10.41;80.98;98995.03;6248345;22;20003;-75
2021/12/29 06:29:00;;;;;;;0.38;0.38;;;;;;;10.36;81.08;98984.19;6247254;22;19946;-74
2021/12/29 06:31:26;;;;;;;0.22;0.22;;;;;;;10.37;81.17;98978.44;6247344;22;20429;-74
2021/12/29 06:33:52;;;;;;;0.25;0.25;;;;;;;10.43;81.33;98977.22;6272125;22;20010;-74
2021/12/29 06:36:17;;;;;;;0.30;0.30;;;;;;;10.46;80.87;98986.75;6248362;22;20003;-75
2021/12/29 06:38:43;;;;;;;0.20;0.20;;;;;;;10.49;81.10;98991.63;6197442;22;20085;-75
2021/12/29 06:41:09;;;;;;;0.30;0.30;;;;;;;10.44;81.33;98969.81;6248611;22;20482;-75
2021/12/29 06:43:34;;;;;;;0.20;0.17;;;;;;;10.52;81.02;98977.34;6223088;22;20333;-74
2021/12/29 06:46:00;;;;;;;2.55;0.30;;;;;;;10.53;80.86;98987.16;6247165;22;20373;-75
2021/12/29 06:48:33;;;;;;;0.30;0.30;;;;;;;10.52;81.76;98991.00;6222704;22;20008;-74
2021/12/29 06:51:00;;;;;;;0.30;0.30;;;;;;;10.40;81.16;98963.38;6246633;22;20068;-73
2021/12/29 06:53:29;;;;;;;0.20;0.20;;;;;;;10.54;81.66;98977.88;6247975;22;20010;-74
2021/12/29 06:55:57;;;;;;;0.20;0.20;;;;;;;10.57;81.02;98973.69;6271697;22;20007;-73
2021/12/29 06:58:25;;;;;;;0.20;0.20;;;;;;;10.57;81.66;98976.44;6247404;22;20012;-73
2021/12/29 07:00:50;;;;;;;0.20;0.20;;;;;;;10.57;80.89;98960.88;6244715;22;20003;-74
2021/12/29 07:03:16;;;;;;;0.20;0.20;;;;;;;10.60;81.68;98965.72;6220490;22;20000;-73
2021/12/29 07:05:41;;;;;;;0.20;0.20;;;;;;;10.63;81.75;98976.06;6244196;22;20016;-72
2021/12/29 07:08:12;;;;;;;0.17;0.17;;;;;;;10.64;81.52;98988.63;6272217;22;20050;-74
2021/12/29 07:10:40;;;;;;;0.20;0.20;;;;;;;10.63;81.53;98970.59;6247381;22;20079;-74
2021/12/29 07:13:06;;;;;;;0.20;0.20;;;;;;;10.61;81.75;98978.25;6220778;22;20103;-74
2021/12/29 07:15:32;;;;;;;0.10;0.10;;;;;;;10.69;81.25;98992.34;6194845;22;20031;-73
2021/12/29 07:18:02;;;;;;;0.10;0.10;;;;;;;10.79;81.14;99000.34;6247080;22;20346;-77
2021/12/29 07:20:31;;;;;;;0.10;0.10;;;;;;;10.74;81.37;98976.66;6274041;22;20085;-77
2021/12/29 07:23:14;;;;;;;0.20;0.20;;;;;;;10.72;81.81;98957.03;6274676;22;20006;-74
2021/12/29 07:25:40;;;;;;;0.10;0.10;;;;;;;10.82;81.16;98966.97;6248863;22;20031;-74
2021/12/29 07:28:05;;;;;;;0.73;0.32;;;;;;;10.85;81.28;98963.63;6247889;22;20026;-74
2021/12/29 07:30:31;;;;;;;0.30;0.30;;;;;;;10.86;81.90;98967.94;6247604;22;20011;-73
2021/12/29 07:32:56;;;;;;;0.60;0.60;;;;;;;10.90;81.67;98973.63;6273220;22;20411;-73
2021/12/29 07:35:22;;;;;;;0.60;0.60;;;;;;;10.87;81.46;98952.38;6276398;22;20015;-74
2021/12/29 07:37:48;;;;;;;0.50;0.50;;;;;;;10.92;81.89;98966.75;6243906;22;20027;-73
2021/12/29 07:40:13;;;;;;;0.30;0.30;;;;;;;10.87;81.29;98947.72;6248574;22;20012;-73
2021/12/29 07:42:41;;;;;;;0.47;0.47;;;;;;;10.94;81.79;98956.31;6248353;22;20012;-73
2021/12/29 07:45:08;;;;;;;0.20;0.20;;;;;;;10.94;81.57;98942.63;6247077;22;20079;-73
2021/12/29 07:47:38;;;;;;;0.40;0.40;;;;;;;10.96;81.58;98940.41;6245985;22;20062;-75
2021/12/29 07:50:07;;;;;;;0.70;0.70;;;;;;;10.94;82.06;98939.09;6275937;22;20409;-73
2021/12/29 07:52:33;;;;;;;2.58;0.50;;;;;;;10.94;81.78;98931.69;6252921;22;19992;-74
2021/12/29 07:55:01;;;;;;;5.82;0.52;;;;;;;10.97;82.16;98935.75;6295711;22;20008;-73
2021/12/29 07:57:26;;;;;;;0.73;0.40;;;;;;;11.07;82.43;98945.66;6271613;22;20031;-74
2021/12/29 07:59:52;;;;;;;0.40;0.30;;;;;;;11.11;82.53;98949.41;6264724;22;20038;-76
2021/12/29 08:02:27;;;;;;;0.30;0.30;;;;;;;11.15;82.89;98953.16;6247066;22;20429;-74
2021/12/29 08:05:06;;;;;;;;;;;;;;;11.20;82.07;98950.34;6231669;22;20044;-75
2021/12/29 08:07:33;;;;;;;0.70;0.70;;;;;;;11.07;82.38;98951.97;6270073;22;19911;-72
2021/12/29 08:10:17;;;;;;;0.30;0.25;;;;;;;11.12;83.04;98951.84;6284168;22;20069;-74
2021/12/29 08:12:42;;;;;;;0.30;0.30;;;;;;;11.15;83.46;98964.09;6247039;22;19995;-74
2021/12/29 08:15:08;;;;;;;0.20;0.20;;;;;;;11.23;83.32;98952.44;6252395;22;20303;-72
2021/12/29 08:17:34;;;;;;;0.52;0.52;;;;;;;11.24;83.69;98945.03;6265477;22;20052;-71
2021/12/29 08:20:00;;;;;;;0.40;0.38;;;;;;;11.27;84.53;98950.72;6266195;22;20008;-73
2021/12/29 08:22:26;;;;;;;0.73;0.28;;;;;;;11.31;84.33;98962.66;6292596;22;19991;-72
2021/12/29 08:24:52;;;;;;;0.10;0.10;;;;;;;11.34;85.06;98962.03;6295913;22;20019;-73
2021/12/29 08:27:17;;;;;;;0.30;0.30;;;;;;;11.46;85.05;98974.38;6266253;22;19992;-72
2021/12/29 08:29:43;;;;;;;0.20;0.10;;;;;;;11.50;85.35;98965.25;6244216;22;20003;-74
2021/12/29 08:32:09;;;;;;;0.20;0.20;;;;;;;11.54;85.45;98965.47;6269464;22;19995;-73
2021/12/29 08:34:37;;;;;;;0.08;0.08;;;;;;;11.62;85.64;98962.00;6270508;22;19995;-77
2021/12/29 08:37:03;;;;;;;0.00;0.00;;;;;;;11.69;85.85;98967.03;6270263;22;20110;-74
2021/12/29 08:39:28;;;;;;;1.17;0.10;;;;;;;11.72;85.89;98966.41;6269256;22;19995;-75
2021/12/29 08:41:54;;;;;;;0.00;0.00;;;;;;;11.75;86.40;98959.53;6241329;22;20045;-74
2021/12/29 08:48:00;;;;;;;0.10;0.10;;;;;;;11.79;86.84;98960.53;6136011;23;20068;-74
2021/12/29 08:50:32;;;;;;;0.10;0.10;;;;;;;11.87;86.87;98967.97;6184229;22;20007;-74
2021/12/29 08:53:03;;;;;;;0.00;0.00;;;;;;;11.92;87.10;98970.63;6245358;22;20574;-74
2021/12/29 08:55:33;;;;;;;0.05;0.00;;;;;;;12.04;87.07;98973.63;6250040;22;20007;-73
2021/12/29 08:57:59;;;;;;;0.03;0.03;;;;;;;12.07;87.13;98965.91;6274970;22;20042;-73
2021/12/29 09:00:28;;;;;;;0.00;0.00;;;;;;;12.13;86.71;98970.16;6248512;22;20082;-74
2021/12/29 09:02:53;;;;;;;0.05;0.00;;;;;;;12.25;87.25;98981.38;6268350;22;20003;-74
2021/12/29 09:05:19;;;;;;;0.10;0.00;;;;;;;12.33;87.20;98986.06;6241581;22;20000;-75
2021/12/29 09:07:50;;;;;;;0.05;0.05;;;;;;;12.33;87.37;98991.56;6243916;22;20012;-74
2021/12/29 09:10:17;;;;;;;0.03;0.00;;;;;;;12.38;88.04;98993.34;6278226;22;20041;-73
2021/12/29 09:12:52;;;;;;;0.00;0.00;;;;;;;12.42;87.52;98977.09;6248872;22;20303;-74
2021/12/29 09:15:22;;;;;;;0.00;0.00;;;;;;;12.46;87.92;98956.16;6198167;22;20086;-75
2021/12/29 09:17:48;;;;;;;0.10;0.10;;;;;;;12.62;87.07;98984.00;6266561;22;19999;-74
2021/12/29 09:20:24;;;;;;;0.47;0.00;;;;;;;12.69;87.46;98981.63;6218167;22;20019;-74
2021/12/29 09:22:52;;;;;;;0.10;0.00;;;;;;;12.77;87.20;98969.84;6243923;22;20273;-74
2021/12/29 09:25:20;;;;;;;0.28;0.00;;;;;;;12.84;87.06;98972.16;6243786;22;20011;-74
2021/12/29 09:27:49;;;;;;;0.15;0.15;;;;;;;12.87;86.91;98953.13;6237896;22;20007;-72
2021/12/29 09:30:19;;;;;;;0.10;0.00;;;;;;;12.91;87.47;98967.03;6245643;22;20024;-72
2021/12/29 09:32:45;;;;;;;0.03;0.00;;;;;;;12.98;87.55;98956.41;6241751;22;20142;-74
2021/12/29 09:35:11;;;;;;;1.10;0.00;;;;;;;13.06;87.68;98966.56;6268260;22;20469;-73
2021/12/29 09:37:37;;;;;;;2.20;0.13;;;;;;;13.09;87.48;98963.19;6237997;22;20081;-72
2021/12/29 09:40:03;;;;;;;0.30;0.10;;;;;;;13.16;87.94;98967.44;6240071;22;20011;-72
2021/12/29 09:42:28;;;;;;;0.47;0.20;;;;;;;13.27;87.75;98979.72;6268541;22;19996;-70
2021/12/29 09:44:54;;;;;;;0.20;0.10;;;;;;;13.30;87.85;98979.06;6269420;22;20008;-74
2021/12/29 09:47:20;;;;;;;2.25;0.30;;;;;;;13.34;87.97;98974.59;6194457;22;20099;-75
2021/12/29 09:49:46;;;;;;;0.20;0.10;;;;;;;13.50;88.10;98982.38;6273574;22;20008;-73
2021/12/29 09:52:11;;;;;;;0.75;0.20;;;;;;;13.54;87.96;98977.88;6245412;22;20011;-74
2021/12/29 09:54:37;;;;;;;1.27;0.30;;;;;;;13.58;88.29;98981.56;6244480;22;20310;-74
2021/12/29 09:57:03;;;;;;;0.75;0.17;;;;;;;13.65;88.25;98983.84;6219899;22;20015;-74
2021/12/29 09:59:29;;;;;;;0.25;0.10;;;;;;;13.70;88.29;98986.44;6219670;22;20015;-74
2021/12/29 10:01:58;;;;;;;1.08;0.20;;;;;;;13.76;87.96;98966.72;6275419;22;20074;-75
2021/12/29 10:04:25;;;;;;;4.05;0.30;;;;;;;13.80;88.14;98969.66;6247519;22;20437;-74
2021/12/29 10:06:50;;;;;;;0.52;0.30;;;;;;;13.87;87.82;98974.63;6247697;22;20008;-75
2021/12/29 10:09:18;;;;;;;1.13;0.20;;;;;;;13.84;88.00;98969.78;6221334;22;20061;-74
2021/12/29 10:11:45;;;;;;;0.93;0.30;;;;;;;13.85;88.21;98990.66;6274426;22;20071;-75
2021/12/29 10:14:17;;;;;;;2.47;0.43;;;;;;;13.93;87.94;98985.16;6244744;22;20010;-76
2021/12/29 10:16:47;;;;;;;4.85;0.30;;;;;;;13.84;87.84;98989.03;6247139;22;20045;-75
2021/12/29 10:19:14;;;;;;;0.77;0.15;;;;;;;13.88;88.34;98984.50;6247044;22;20010;-75
2021/12/29 10:21:46;;;;;;;2.33;0.10;;;;;;;13.94;88.08;98969.47;6248116;22;20039;-76
2021/12/29 10:24:13;;;;;;;1.13;0.08;;;;;;;14.06;87.63;98983.38;6273334;22;20004;-73
2021/12/29 10:26:49;;;;;;;4.25;0.30;;;;;;;14.11;87.67;98982.41;6274060;22;20116;-73
2021/12/29 10:29:17;;;;;;;0.60;0.25;;;;;;;14.09;87.45;98996.47;6273632;22;20008;-72
2021/12/29 10:31:49;;;;;;;1.10;0.28;;;;;;;14.11;87.45;98990.66;6243438;22;20061;-73
2021/12/29 10:34:21;;;;;;;0.10;0.10;;;;;;;14.09;87.60;98993.72;6271408;22;20004;-73
2021/12/29 10:36:51;;;;;;;2.17;0.40;;;;;;;14.13;87.43;98994.69;6244991;22;20004;-73
2021/12/29 10:39:25;;;;;;;0.30;0.30;;;;;;;14.22;87.26;98985.63;6245332;22;20004;-72
2021/12/29 10:41:58;;;;;;;0.65;0.25;;;;;;;14.25;87.02;98979.47;6245509;22;20007;-71
2021/12/29 10:44:33;;;;;;;0.80;0.40;;;;;;;14.24;87.21;98978.66;6270791;22;20472;-72
2021/12/29 10:47:16;;;;;;;0.50;0.10;;;;;;;14.32;86.92;98979.78;6267401;22;19999;-76
2021/12/29 10:50:13;;;;;;;0.32;0.13;;;;;;;14.43;86.53;98997.56;6246179;22;20321;-77
2021/12/29 10:53:08;;;;;;;;;;;;;;;;;;;;;
2021/12/29 10:56:05;;;;;;;;;;;;;;;;;;;;;
2021/12/29 10:58:39;;;;;;;1.60;0.00;;;;;;;14.52;85.66;98983.78;6271978;22;20083;-77
2021/12/29 11:01:32;;;;;;;1.02;0.20;;;;;;;14.57;85.90;98985.53;6272818;22;20008;-75
2021/12/29 11:04:08;;;;;;;2.20;0.40;;;;;;;14.58;85.54;98998.19;6234230;22;20004;-77
2021/12/29 11:06:46;;;;;;;3.75;0.50;;;;;;;14.63;85.39;98995.25;6273869;22;20018;-75
2021/12/29 11:09:15;;;;;;;3.28;0.20;;;;;;;14.68;85.42;99008.06;6271570;22;19996;-75
2021/12/29 11:11:45;;;;;;;0.55;0.20;;;;;;;14.68;84.88;98991.56;6271757;22;20027;-73
2021/12/29 11:14:21;;;;;;;1.17;0.20;;;;;;;14.84;84.89;99023.69;6273983;22;20011;-73
2021/12/29 11:17:02;;;;;;;0.30;0.15;;;;;;;14.88;84.70;99017.53;6269441;22;19999;-73
2021/12/29 11:19:28;;;;;;;1.63;0.40;;;;;;;14.80;84.26;99017.22;6274050;22;20380;-75
2021/12/29 11:22:14;;;;;;;8.02;0.40;;;;;;;14.83;84.29;99011.09;6273851;22;20023;-78
2021/12/29 11:24:42;;;;;;;0.65;0.22;;;;;;;14.90;84.09;99026.28;6291334;22;20005;-81
2021/12/29 11:27:15;;;;;;;1.58;0.25;;;;;;;14.90;83.87;99010.56;6266183;22;20007;-81
2021/12/29 11:29:52;;;;;;;2.97;0.25;;;;;;;15.05;83.58;99033.97;6260759;22;20007;-76
2021/12/29 11:32:26;;;;;;;1.02;0.35;;;;;;;14.89;83.29;99008.94;6257481;22;20079;-77
2021/12/29 11:35:32;;;;;;;;;;;;;;;;;;;;;
2021/12/29 11:38:01;;;;;;;1.85;0.20;;;;;;;15.22;82.88;99029.56;6275093;22;20385;-80
2021/12/29 11:40:31;;;;;;;6.18;0.17;;;;;;;15.14;82.23;99037.53;6219759;22;20426;-78
2021/12/29 11:42:59;;;;;;;3.47;0.93;;;;;;;15.14;82.44;99044.97;6246914;22;20028;-80
2021/12/29 11:45:35;;;;;;;;;;;;;;;;;;;;;
2021/12/29 11:48:46;;;;;;;0.20;0.10;;;;;;;15.07;82.80;99059.25;6276606;22;20078;-80
2021/12/29 11:51:39;;;;;;;4.20;0.20;;;;;;;14.97;83.12;99054.09;6243608;22;20010;-80
2021/12/29 11:54:18;;;;;;;0.60;0.30;;;;;;;14.84;83.57;99064.97;6277619;22;19996;-79
2021/12/29 11:56:43;;;;;;;1.13;0.30;;;;;;;14.84;83.88;99075.97;6248600;22;19999;-76
2021/12/29 11:59:09;;;;;;;3.28;0.40;;;;;;;14.76;84.32;99057.56;6248530;22;20038;-76
2021/12/29 12:01:36;;;;;;;10.15;0.20;;;;;;;14.68;84.74;99080.38;6275374;22;20942;-77
2021/12/29 12:04:12;;;;;;;1.75;0.20;;;;;;;14.69;85.23;99082.00;6249180;22;19995;-76
2021/12/29 12:06:43;;;;;;;4.05;0.28;;;;;;;14.69;85.45;99098.53;6275440;22;20034;-76
2021/12/29 12:09:21;;;;;;;0.20;0.10;;;;;;;14.66;85.95;99107.44;6275342;22;20559;-77
2021/12/29 12:11:49;;;;;;;0.73;0.68;;;;;;;14.68;85.99;99102.41;6246803;22;20346;-79
2021/12/29 12:14:34;;;;;;;1.70;0.30;;;;;;;14.62;85.82;99109.22;6249321;22;20041;-77
2021/12/29 12:17:11;;;;;;;2.03;0.20;;;;;;;14.69;86.02;99130.72;6273092;22;20042;-77
2021/12/29 12:19:37;;;;;;;0.70;0.32;;;;;;;14.74;85.66;99128.59;6274870;22;19996;-77